sensor_id;sensor_type;location;lat;lon;timestamp;P1;durP1;ratioP1;P2;durP2;ratioP2
9140;SDS011;46330;50.822;7.126;2022-11-20T00:00:53;20.48;;;11.32;;
9140;SDS011;46330;50.822;7.126;2022-11-20T00:03:21;23.52;;;12.77;;
9140;SDS011;46330;50.822;7.126;2022-11-20T00:05:49;19.65;;;12.10;;
9140;SDS011;46330;50.822;7.126;2022-11-20T00:08:17;21.63;;;12.15;;
9140;SDS011;46330;50.822;7.126;2022-11-20T00:10:45;19.98;;;11.73;;
9140;SDS011;46330;50.822;7.126;2022-11-20T00:13:14;18.77;;;11.40;;
9140;SDS011;46330;50.822;7.126;2022-11-20T00:15:41;18.15;;;10.60;;
9140;SDS011;46330;50.822;7.126;2022-11-20T00:18:09;21.88;;;11.60;;
9140;SDS011;46330;50.822;7.126;2022-11-20T00:20:37;19.90;;;11.10;;
9140;SDS011;46330;50.822;7.126;2022-11-20T00:23:05;18.52;;;10.85;;
9140;SDS011;46330;50.822;7.126;2022-11-20T00:25:33;20.00;;;11.23;;
9140;SDS011;46330;50.822;7.126;2022-11-20T00:28:01;17.67;;;10.70;;
9140;SDS011;46330;50.822;7.126;2022-11-20T00:30:31;17.15;;;10.80;;
9140;SDS011;46330;50.822;7.126;2022-11-20T00:32:59;18.10;;;10.95;;
9140;SDS011;46330;50.822;7.126;2022-11-20T00:35:26;19.10;;;10.95;;
9140;SDS011;46330;50.822;7.126;2022-11-20T00:37:54;19.25;;;10.75;;
9140;SDS011;46330;50.822;7.126;2022-11-20T00:40:22;18.08;;;11.20;;
9140;SDS011;46330;50.822;7.126;2022-11-20T00:42:49;18.02;;;10.63;;
9140;SDS011;46330;50.822;7.126;2022-11-20T00:45:17;20.02;;;10.95;;
9140;SDS011;46330;50.822;7.126;2022-11-20T00:47:46;17.45;;;10.40;;
9140;SDS011;46330;50.822;7.126;2022-11-20T00:50:14;19.65;;;11.02;;
9140;SDS011;46330;50.822;7.126;2022-11-20T00:52:42;17.13;;;10.10;;
9140;SDS011;46330;50.822;7.126;2022-11-20T00:55:10;17.85;;;10.93;;
9140;SDS011;46330;50.822;7.126;2022-11-20T00:57:37;16.13;;;10.25;;
9140;SDS011;46330;50.822;7.126;2022-11-20T01:00:06;17.17;;;10.43;;
9140;SDS011;46330;50.822;7.126;2022-11-20T01:02:34;17.63;;;9.77;;
9140;SDS011;46330;50.822;7.126;2022-11-20T01:05:03;17.38;;;10.23;;
9140;SDS011;46330;50.822;7.126;2022-11-20T01:07:31;18.63;;;10.85;;
9140;SDS011;46330;50.822;7.126;2022-11-20T01:09:59;17.70;;;10.80;;
9140;SDS011;46330;50.822;7.126;2022-11-20T01:12:27;17.20;;;10.27;;
9140;SDS011;46330;50.822;7.126;2022-11-20T01:14:55;18.35;;;9.85;;
9140;SDS011;46330;50.822;7.126;2022-11-20T01:17:22;16.00;;;10.32;;
9140;SDS011;46330;50.822;7.126;2022-11-20T01:19:50;18.20;;;10.60;;
9140;SDS011;46330;50.822;7.126;2022-11-20T01:22:19;20.17;;;10.35;;
9140;SDS011;46330;50.822;7.126;2022-11-20T01:24:47;18.67;;;10.35;;
9140;SDS011;46330;50.822;7.126;2022-11-20T01:27:15;18.90;;;10.73;;
9140;SDS011;46330;50.822;7.126;2022-11-20T01:29:43;18.45;;;9.73;;
9140;SDS011;46330;50.822;7.126;2022-11-20T01:32:10;17.40;;;10.20;;
9140;SDS011;46330;50.822;7.126;2022-11-20T01:34:38;19.05;;;10.55;;
9140;SDS011;46330;50.822;7.126;2022-11-20T01:37:06;19.05;;;11.23;;
9140;SDS011;46330;50.822;7.126;2022-11-20T01:39:35;19.52;;;10.60;;
9140;SDS011;46330;50.822;7.126;2022-11-20T01:42:03;15.90;;;10.07;;
9140;SDS011;46330;50.822;7.126;2022-11-20T01:44:53;16.65;;;10.18;;
9140;SDS011;46330;50.822;7.126;2022-11-20T01:47:28;16.97;;;9.83;;
9140;SDS011;46330;50.822;7.126;2022-11-20T01:52:30;15.07;;;9.13;;
9140;SDS011;46330;50.822;7.126;2022-11-20T01:55:03;17.17;;;9.60;;
9140;SDS011;46330;50.822;7.126;2022-11-20T01:57:34;16.65;;;9.95;;
9140;SDS011;46330;50.822;7.126;2022-11-20T02:00:04;17.15;;;10.23;;
9140;SDS011;46330;50.822;7.126;2022-11-20T02:02:42;16.65;;;10.05;;
9140;SDS011;46330;50.822;7.126;2022-11-20T02:05:15;16.73;;;9.90;;
9140;SDS011;46330;50.822;7.126;2022-11-20T02:07:49;20.63;;;10.75;;
9140;SDS011;46330;50.822;7.126;2022-11-20T02:10:19;18.63;;;10.45;;
9140;SDS011;46330;50.822;7.126;2022-11-20T02:12:48;16.95;;;10.48;;
9140;SDS011;46330;50.822;7.126;2022-11-20T02:18:01;16.50;;;9.20;;
9140;SDS011;46330;50.822;7.126;2022-11-20T02:20:29;17.92;;;10.50;;
9140;SDS011;46330;50.822;7.126;2022-11-20T02:22:57;17.88;;;10.05;;
9140;SDS011;46330;50.822;7.126;2022-11-20T02:25:30;17.85;;;10.10;;
9140;SDS011;46330;50.822;7.126;2022-11-20T02:28:01;16.75;;;9.88;;
9140;SDS011;46330;50.822;7.126;2022-11-20T02:30:30;19.25;;;10.63;;
9140;SDS011;46330;50.822;7.126;2022-11-20T02:32:57;16.88;;;8.95;;
9140;SDS011;46330;50.822;7.126;2022-11-20T02:35:39;18.60;;;10.68;;
9140;SDS011;46330;50.822;7.126;2022-11-20T02:38:11;16.83;;;10.50;;
9140;SDS011;46330;50.822;7.126;2022-11-20T02:40:42;16.98;;;10.13;;
9140;SDS011;46330;50.822;7.126;2022-11-20T02:43:10;16.90;;;10.43;;
9140;SDS011;46330;50.822;7.126;2022-11-20T02:45:38;20.85;;;10.90;;
9140;SDS011;46330;50.822;7.126;2022-11-20T02:48:06;16.02;;;10.05;;
9140;SDS011;46330;50.822;7.126;2022-11-20T02:50:36;19.15;;;10.35;;
9140;SDS011;46330;50.822;7.126;2022-11-20T02:53:05;22.55;;;11.13;;
9140;SDS011;46330;50.822;7.126;2022-11-20T02:55:34;17.30;;;10.15;;
9140;SDS011;46330;50.822;7.126;2022-11-20T02:58:03;20.15;;;10.90;;
9140;SDS011;46330;50.822;7.126;2022-11-20T03:00:31;17.92;;;10.20;;
9140;SDS011;46330;50.822;7.126;2022-11-20T03:02:59;16.75;;;10.27;;
9140;SDS011;46330;50.822;7.126;2022-11-20T03:05:27;16.20;;;9.90;;
9140;SDS011;46330;50.822;7.126;2022-11-20T03:07:55;18.88;;;11.20;;
9140;SDS011;46330;50.822;7.126;2022-11-20T03:10:23;17.20;;;10.57;;
9140;SDS011;46330;50.822;7.126;2022-11-20T03:12:52;16.40;;;10.02;;
9140;SDS011;46330;50.822;7.126;2022-11-20T03:15:23;18.05;;;10.50;;
9140;SDS011;46330;50.822;7.126;2022-11-20T03:17:52;16.58;;;10.18;;
9140;SDS011;46330;50.822;7.126;2022-11-20T03:20:21;17.27;;;10.38;;
9140;SDS011;46330;50.822;7.126;2022-11-20T03:22:49;17.15;;;9.73;;
9140;SDS011;46330;50.822;7.126;2022-11-20T03:25:17;16.55;;;10.60;;
9140;SDS011;46330;50.822;7.126;2022-11-20T03:27:45;20.58;;;10.93;;
9140;SDS011;46330;50.822;7.126;2022-11-20T03:30:13;17.27;;;10.45;;
9140;SDS011;46330;50.822;7.126;2022-11-20T03:32:42;18.05;;;10.77;;
9140;SDS011;46330;50.822;7.126;2022-11-20T03:35:10;19.67;;;11.10;;
9140;SDS011;46330;50.822;7.126;2022-11-20T03:37:38;18.08;;;10.65;;
9140;SDS011;46330;50.822;7.126;2022-11-20T03:40:06;17.75;;;10.35;;
9140;SDS011;46330;50.822;7.126;2022-11-20T03:42:34;18.73;;;11.38;;
9140;SDS011;46330;50.822;7.126;2022-11-20T03:45:15;20.13;;;10.82;;
9140;SDS011;46330;50.822;7.126;2022-11-20T03:47:45;16.30;;;9.48;;
9140;SDS011;46330;50.822;7.126;2022-11-20T03:50:13;19.13;;;10.75;;
9140;SDS011;46330;50.822;7.126;2022-11-20T03:52:41;19.95;;;11.40;;
9140;SDS011;46330;50.822;7.126;2022-11-20T03:55:09;18.55;;;10.75;;
9140;SDS011;46330;50.822;7.126;2022-11-20T03:57:37;19.27;;;11.20;;
9140;SDS011;46330;50.822;7.126;2022-11-20T04:00:05;19.42;;;10.55;;
9140;SDS011;46330;50.822;7.126;2022-11-20T04:02:34;20.48;;;10.85;;
9140;SDS011;46330;50.822;7.126;2022-11-20T04:05:03;20.08;;;12.32;;
9140;SDS011;46330;50.822;7.126;2022-11-20T04:07:33;20.33;;;11.27;;
9140;SDS011;46330;50.822;7.126;2022-11-20T04:10:02;18.58;;;11.02;;
9140;SDS011;46330;50.822;7.126;2022-11-20T04:12:31;20.38;;;12.02;;
9140;SDS011;46330;50.822;7.126;2022-11-20T04:14:59;21.05;;;11.38;;
9140;SDS011;46330;50.822;7.126;2022-11-20T04:17:27;18.08;;;10.25;;
9140;SDS011;46330;50.822;7.126;2022-11-20T04:19:55;18.67;;;11.52;;
9140;SDS011;46330;50.822;7.126;2022-11-20T04:22:24;20.38;;;12.20;;
9140;SDS011;46330;50.822;7.126;2022-11-20T04:24:52;20.60;;;12.02;;
9140;SDS011;46330;50.822;7.126;2022-11-20T04:27:20;22.45;;;12.23;;
9140;SDS011;46330;50.822;7.126;2022-11-20T04:29:48;22.98;;;11.90;;
9140;SDS011;46330;50.822;7.126;2022-11-20T04:32:16;23.50;;;12.25;;
9140;SDS011;46330;50.822;7.126;2022-11-20T04:34:44;19.20;;;11.85;;
9140;SDS011;46330;50.822;7.126;2022-11-20T04:37:11;22.38;;;12.23;;
9140;SDS011;46330;50.822;7.126;2022-11-20T04:39:41;19.35;;;11.23;;
9140;SDS011;46330;50.822;7.126;2022-11-20T04:42:09;22.52;;;11.88;;
9140;SDS011;46330;50.822;7.126;2022-11-20T04:44:54;21.55;;;12.02;;
9140;SDS011;46330;50.822;7.126;2022-11-20T04:47:23;22.02;;;11.65;;
9140;SDS011;46330;50.822;7.126;2022-11-20T04:49:50;21.58;;;12.27;;
9140;SDS011;46330;50.822;7.126;2022-11-20T04:52:18;19.77;;;11.95;;
9140;SDS011;46330;50.822;7.126;2022-11-20T04:54:48;21.40;;;12.18;;
9140;SDS011;46330;50.822;7.126;2022-11-20T04:57:19;21.58;;;11.98;;
9140;SDS011;46330;50.822;7.126;2022-11-20T04:59:47;19.35;;;11.70;;
9140;SDS011;46330;50.822;7.126;2022-11-20T05:02:14;21.95;;;12.20;;
9140;SDS011;46330;50.822;7.126;2022-11-20T05:04:42;23.33;;;12.20;;
9140;SDS011;46330;50.822;7.126;2022-11-20T05:07:10;22.83;;;12.13;;
9140;SDS011;46330;50.822;7.126;2022-11-20T05:09:38;21.38;;;12.50;;
9140;SDS011;46330;50.822;7.126;2022-11-20T05:12:08;22.38;;;12.60;;
9140;SDS011;46330;50.822;7.126;2022-11-20T05:14:36;18.95;;;11.75;;
9140;SDS011;46330;50.822;7.126;2022-11-20T05:17:04;21.13;;;12.05;;
9140;SDS011;46330;50.822;7.126;2022-11-20T05:19:32;22.88;;;12.52;;
9140;SDS011;46330;50.822;7.126;2022-11-20T05:22:00;22.13;;;12.32;;
9140;SDS011;46330;50.822;7.126;2022-11-20T05:24:27;18.83;;;11.45;;
9140;SDS011;46330;50.822;7.126;2022-11-20T05:26:55;24.05;;;12.65;;
9140;SDS011;46330;50.822;7.126;2022-11-20T05:29:24;22.42;;;12.93;;
9140;SDS011;46330;50.822;7.126;2022-11-20T05:31:52;23.85;;;12.90;;
9140;SDS011;46330;50.822;7.126;2022-11-20T05:34:20;22.10;;;12.38;;
9140;SDS011;46330;50.822;7.126;2022-11-20T05:36:48;21.38;;;12.23;;
9140;SDS011;46330;50.822;7.126;2022-11-20T05:39:15;21.38;;;11.95;;
9140;SDS011;46330;50.822;7.126;2022-11-20T05:41:43;20.85;;;11.93;;
9140;SDS011;46330;50.822;7.126;2022-11-20T05:44:11;21.63;;;12.32;;
9140;SDS011;46330;50.822;7.126;2022-11-20T05:46:41;21.58;;;11.88;;
9140;SDS011;46330;50.822;7.126;2022-11-20T05:49:09;20.98;;;11.85;;
9140;SDS011;46330;50.822;7.126;2022-11-20T05:51:37;18.40;;;10.85;;
9140;SDS011;46330;50.822;7.126;2022-11-20T05:54:04;19.05;;;11.25;;
9140;SDS011;46330;50.822;7.126;2022-11-20T05:56:32;17.98;;;10.65;;
9140;SDS011;46330;50.822;7.126;2022-11-20T05:59:00;18.35;;;11.10;;
9140;SDS011;46330;50.822;7.126;2022-11-20T06:01:28;17.40;;;9.98;;
9140;SDS011;46330;50.822;7.126;2022-11-20T06:03:57;19.50;;;11.50;;
9140;SDS011;46330;50.822;7.126;2022-11-20T06:06:25;18.02;;;11.15;;
9140;SDS011;46330;50.822;7.126;2022-11-20T06:08:53;17.77;;;9.93;;
9140;SDS011;46330;50.822;7.126;2022-11-20T06:11:21;16.48;;;10.48;;
9140;SDS011;46330;50.822;7.126;2022-11-20T06:13:49;17.45;;;10.02;;
9140;SDS011;46330;50.822;7.126;2022-11-20T06:16:18;19.05;;;11.02;;
9140;SDS011;46330;50.822;7.126;2022-11-20T06:18:47;18.92;;;10.93;;
9140;SDS011;46330;50.822;7.126;2022-11-20T06:21:17;19.58;;;11.30;;
9140;SDS011;46330;50.822;7.126;2022-11-20T06:23:46;16.88;;;10.05;;
9140;SDS011;46330;50.822;7.126;2022-11-20T06:26:16;18.60;;;10.65;;
9140;SDS011;46330;50.822;7.126;2022-11-20T06:28:45;16.95;;;10.48;;
9140;SDS011;46330;50.822;7.126;2022-11-20T06:31:15;17.77;;;10.18;;
9140;SDS011;46330;50.822;7.126;2022-11-20T06:33:44;17.15;;;10.52;;
9140;SDS011;46330;50.822;7.126;2022-11-20T06:36:13;19.55;;;10.70;;
9140;SDS011;46330;50.822;7.126;2022-11-20T06:38:43;19.23;;;10.60;;
9140;SDS011;46330;50.822;7.126;2022-11-20T06:41:12;18.45;;;10.73;;
9140;SDS011;46330;50.822;7.126;2022-11-20T06:43:41;18.27;;;11.15;;
9140;SDS011;46330;50.822;7.126;2022-11-20T06:46:10;20.27;;;10.63;;
9140;SDS011;46330;50.822;7.126;2022-11-20T06:48:39;20.45;;;11.20;;
9140;SDS011;46330;50.822;7.126;2022-11-20T06:51:07;20.52;;;11.10;;
9140;SDS011;46330;50.822;7.126;2022-11-20T06:53:36;20.27;;;11.35;;
9140;SDS011;46330;50.822;7.126;2022-11-20T06:56:06;18.27;;;10.57;;
9140;SDS011;46330;50.822;7.126;2022-11-20T06:58:35;19.88;;;10.80;;
9140;SDS011;46330;50.822;7.126;2022-11-20T07:01:04;17.85;;;10.60;;
9140;SDS011;46330;50.822;7.126;2022-11-20T07:03:34;19.25;;;11.25;;
9140;SDS011;46330;50.822;7.126;2022-11-20T07:06:03;19.58;;;11.70;;
9140;SDS011;46330;50.822;7.126;2022-11-20T07:08:31;21.95;;;12.25;;
9140;SDS011;46330;50.822;7.126;2022-11-20T07:11:00;20.42;;;12.13;;
9140;SDS011;46330;50.822;7.126;2022-11-20T07:13:31;21.20;;;12.07;;
9140;SDS011;46330;50.822;7.126;2022-11-20T07:15:59;21.80;;;11.52;;
9140;SDS011;46330;50.822;7.126;2022-11-20T07:18:28;20.70;;;12.15;;
9140;SDS011;46330;50.822;7.126;2022-11-20T07:20:59;22.48;;;12.70;;
9140;SDS011;46330;50.822;7.126;2022-11-20T07:23:28;21.63;;;11.93;;
9140;SDS011;46330;50.822;7.126;2022-11-20T07:25:56;21.00;;;12.63;;
9140;SDS011;46330;50.822;7.126;2022-11-20T07:28:24;22.33;;;12.50;;
9140;SDS011;46330;50.822;7.126;2022-11-20T07:30:53;22.40;;;12.55;;
9140;SDS011;46330;50.822;7.126;2022-11-20T07:33:21;20.20;;;12.80;;
9140;SDS011;46330;50.822;7.126;2022-11-20T07:35:48;21.88;;;12.70;;
9140;SDS011;46330;50.822;7.126;2022-11-20T07:38:16;25.73;;;12.65;;
9140;SDS011;46330;50.822;7.126;2022-11-20T07:40:44;23.42;;;12.23;;
9140;SDS011;46330;50.822;7.126;2022-11-20T07:43:12;23.60;;;12.63;;
9140;SDS011;46330;50.822;7.126;2022-11-20T07:45:41;21.77;;;12.45;;
9140;SDS011;46330;50.822;7.126;2022-11-20T07:48:10;22.08;;;12.60;;
9140;SDS011;46330;50.822;7.126;2022-11-20T07:50:38;27.05;;;15.38;;
9140;SDS011;46330;50.822;7.126;2022-11-20T07:53:06;24.60;;;14.70;;
9140;SDS011;46330;50.822;7.126;2022-11-20T07:55:34;20.50;;;12.93;;
9140;SDS011;46330;50.822;7.126;2022-11-20T07:58:02;21.45;;;13.40;;
9140;SDS011;46330;50.822;7.126;2022-11-20T08:00:30;20.55;;;12.55;;
9140;SDS011;46330;50.822;7.126;2022-11-20T08:02:58;22.88;;;13.07;;
9140;SDS011;46330;50.822;7.126;2022-11-20T08:05:27;21.88;;;12.65;;
9140;SDS011;46330;50.822;7.126;2022-11-20T08:07:55;21.92;;;12.50;;
9140;SDS011;46330;50.822;7.126;2022-11-20T08:10:23;22.02;;;12.27;;
9140;SDS011;46330;50.822;7.126;2022-11-20T08:12:52;22.90;;;13.90;;
9140;SDS011;46330;50.822;7.126;2022-11-20T08:15:38;21.73;;;12.93;;
9140;SDS011;46330;50.822;7.126;2022-11-20T08:18:07;22.08;;;12.30;;
9140;SDS011;46330;50.822;7.126;2022-11-20T08:21:01;30.08;;;18.02;;
9140;SDS011;46330;50.822;7.126;2022-11-20T08:23:29;28.23;;;15.48;;
9140;SDS011;46330;50.822;7.126;2022-11-20T08:25:57;34.42;;;25.08;;
9140;SDS011;46330;50.822;7.126;2022-11-20T08:28:25;24.55;;;15.02;;
9140;SDS011;46330;50.822;7.126;2022-11-20T08:30:57;23.77;;;13.70;;
9140;SDS011;46330;50.822;7.126;2022-11-20T08:33:26;22.55;;;12.75;;
9140;SDS011;46330;50.822;7.126;2022-11-20T08:35:59;22.42;;;12.75;;
9140;SDS011;46330;50.822;7.126;2022-11-20T08:38:27;22.05;;;12.57;;
9140;SDS011;46330;50.822;7.126;2022-11-20T08:40:56;23.42;;;13.50;;
9140;SDS011;46330;50.822;7.126;2022-11-20T08:43:42;24.50;;;14.48;;
9140;SDS011;46330;50.822;7.126;2022-11-20T08:46:09;22.17;;;13.13;;
9140;SDS011;46330;50.822;7.126;2022-11-20T08:48:37;21.95;;;13.38;;
9140;SDS011;46330;50.822;7.126;2022-11-20T08:51:06;24.25;;;13.73;;
9140;SDS011;46330;50.822;7.126;2022-11-20T08:53:34;25.50;;;14.48;;
9140;SDS011;46330;50.822;7.126;2022-11-20T08:56:02;24.30;;;13.95;;
9140;SDS011;46330;50.822;7.126;2022-11-20T08:58:30;28.63;;;14.05;;
9140;SDS011;46330;50.822;7.126;2022-11-20T09:01:18;25.25;;;13.45;;
9140;SDS011;46330;50.822;7.126;2022-11-20T09:03:47;23.08;;;13.52;;
9140;SDS011;46330;50.822;7.126;2022-11-20T09:06:16;22.30;;;13.48;;
9140;SDS011;46330;50.822;7.126;2022-11-20T09:08:45;27.10;;;13.80;;
9140;SDS011;46330;50.822;7.126;2022-11-20T09:11:13;19.92;;;12.35;;
9140;SDS011;46330;50.822;7.126;2022-11-20T09:13:41;22.70;;;12.82;;
9140;SDS011;46330;50.822;7.126;2022-11-20T09:16:08;22.27;;;13.00;;
9140;SDS011;46330;50.822;7.126;2022-11-20T09:18:36;23.38;;;12.88;;
9140;SDS011;46330;50.822;7.126;2022-11-20T09:21:06;22.42;;;13.13;;
9140;SDS011;46330;50.822;7.126;2022-11-20T09:23:38;23.00;;;13.30;;
9140;SDS011;46330;50.822;7.126;2022-11-20T09:26:07;21.40;;;13.25;;
9140;SDS011;46330;50.822;7.126;2022-11-20T09:28:37;21.77;;;13.40;;
9140;SDS011;46330;50.822;7.126;2022-11-20T09:31:05;25.10;;;13.93;;
9140;SDS011;46330;50.822;7.126;2022-11-20T09:33:33;22.33;;;13.45;;
9140;SDS011;46330;50.822;7.126;2022-11-20T09:36:01;24.08;;;14.18;;
9140;SDS011;46330;50.822;7.126;2022-11-20T09:38:28;26.15;;;15.13;;
9140;SDS011;46330;50.822;7.126;2022-11-20T09:40:58;23.08;;;14.02;;
9140;SDS011;46330;50.822;7.126;2022-11-20T09:43:35;22.80;;;14.20;;
9140;SDS011;46330;50.822;7.126;2022-11-20T09:46:14;26.20;;;13.80;;
9140;SDS011;46330;50.822;7.126;2022-11-20T09:48:56;25.27;;;14.65;;
9140;SDS011;46330;50.822;7.126;2022-11-20T09:51:40;23.27;;;13.60;;
9140;SDS011;46330;50.822;7.126;2022-11-20T09:54:19;24.20;;;14.05;;
9140;SDS011;46330;50.822;7.126;2022-11-20T09:56:52;22.75;;;13.40;;
9140;SDS011;46330;50.822;7.126;2022-11-20T09:59:28;26.02;;;14.55;;
9140;SDS011;46330;50.822;7.126;2022-11-20T10:02:02;30.48;;;17.27;;
9140;SDS011;46330;50.822;7.126;2022-11-20T10:04:34;29.45;;;16.63;;
9140;SDS011;46330;50.822;7.126;2022-11-20T10:07:07;26.05;;;14.75;;
9140;SDS011;46330;50.822;7.126;2022-11-20T10:09:58;29.30;;;16.55;;
9140;SDS011;46330;50.822;7.126;2022-11-20T10:12:31;25.42;;;14.82;;
9140;SDS011;46330;50.822;7.126;2022-11-20T10:15:11;29.13;;;15.60;;
9140;SDS011;46330;50.822;7.126;2022-11-20T10:17:51;28.02;;;16.42;;
9140;SDS011;46330;50.822;7.126;2022-11-20T10:20:40;37.25;;;22.58;;
9140;SDS011;46330;50.822;7.126;2022-11-20T10:26:16;25.98;;;14.25;;
9140;SDS011;46330;50.822;7.126;2022-11-20T10:28:54;25.83;;;15.20;;
9140;SDS011;46330;50.822;7.126;2022-11-20T10:31:34;25.30;;;14.25;;
9140;SDS011;46330;50.822;7.126;2022-11-20T10:34:06;30.23;;;16.88;;
9140;SDS011;46330;50.822;7.126;2022-11-20T10:36:46;23.65;;;14.77;;
9140;SDS011;46330;50.822;7.126;2022-11-20T10:39:18;39.47;;;20.40;;
9140;SDS011;46330;50.822;7.126;2022-11-20T10:41:54;27.58;;;16.83;;
9140;SDS011;46330;50.822;7.126;2022-11-20T10:44:27;48.78;;;30.00;;
9140;SDS011;46330;50.822;7.126;2022-11-20T10:47:20;37.22;;;19.92;;
9140;SDS011;46330;50.822;7.126;2022-11-20T10:49:48;35.35;;;19.70;;
9140;SDS011;46330;50.822;7.126;2022-11-20T10:52:21;30.17;;;18.25;;
9140;SDS011;46330;50.822;7.126;2022-11-20T10:54:58;31.50;;;16.63;;
9140;SDS011;46330;50.822;7.126;2022-11-20T10:57:44;25.38;;;14.30;;
9140;SDS011;46330;50.822;7.126;2022-11-20T11:00:20;29.42;;;15.90;;
9140;SDS011;46330;50.822;7.126;2022-11-20T11:02:49;27.05;;;15.65;;
9140;SDS011;46330;50.822;7.126;2022-11-20T11:05:23;25.40;;;15.50;;
9140;SDS011;46330;50.822;7.126;2022-11-20T11:07:59;23.38;;;14.02;;
9140;SDS011;46330;50.822;7.126;2022-11-20T11:10:28;25.27;;;14.18;;
9140;SDS011;46330;50.822;7.126;2022-11-20T11:13:03;25.75;;;14.40;;
9140;SDS011;46330;50.822;7.126;2022-11-20T11:15:38;24.10;;;13.43;;
9140;SDS011;46330;50.822;7.126;2022-11-20T11:18:08;23.17;;;13.00;;
9140;SDS011;46330;50.822;7.126;2022-11-20T11:20:37;24.17;;;12.82;;
9140;SDS011;46330;50.822;7.126;2022-11-20T11:23:29;23.52;;;13.45;;
9140;SDS011;46330;50.822;7.126;2022-11-20T11:26:00;23.65;;;13.25;;
9140;SDS011;46330;50.822;7.126;2022-11-20T11:28:29;26.00;;;14.23;;
9140;SDS011;46330;50.822;7.126;2022-11-20T11:30:58;24.92;;;14.05;;
9140;SDS011;46330;50.822;7.126;2022-11-20T11:33:28;29.90;;;16.73;;
9140;SDS011;46330;50.822;7.126;2022-11-20T11:35:58;26.13;;;16.10;;
9140;SDS011;46330;50.822;7.126;2022-11-20T11:38:28;23.98;;;14.55;;
9140;SDS011;46330;50.822;7.126;2022-11-20T11:41:00;23.67;;;13.80;;
9140;SDS011;46330;50.822;7.126;2022-11-20T11:43:30;22.35;;;12.32;;
9140;SDS011;46330;50.822;7.126;2022-11-20T11:46:27;22.20;;;12.38;;
9140;SDS011;46330;50.822;7.126;2022-11-20T11:48:58;22.92;;;12.52;;
9140;SDS011;46330;50.822;7.126;2022-11-20T11:51:28;22.05;;;12.40;;
9140;SDS011;46330;50.822;7.126;2022-11-20T11:54:05;23.70;;;13.43;;
9140;SDS011;46330;50.822;7.126;2022-11-20T11:56:42;23.77;;;13.50;;
9140;SDS011;46330;50.822;7.126;2022-11-20T11:59:12;23.35;;;13.40;;
9140;SDS011;46330;50.822;7.126;2022-11-20T12:01:52;23.67;;;13.63;;
9140;SDS011;46330;50.822;7.126;2022-11-20T12:04:27;24.85;;;12.60;;
9140;SDS011;46330;50.822;7.126;2022-11-20T12:07:08;24.45;;;14.40;;
9140;SDS011;46330;50.822;7.126;2022-11-20T12:10:00;26.67;;;14.90;;
9140;SDS011;46330;50.822;7.126;2022-11-20T12:12:31;20.77;;;12.05;;
9140;SDS011;46330;50.822;7.126;2022-11-20T12:15:06;25.33;;;13.35;;
9140;SDS011;46330;50.822;7.126;2022-11-20T12:17:40;24.42;;;13.70;;
9140;SDS011;46330;50.822;7.126;2022-11-20T12:20:11;25.58;;;13.88;;
9140;SDS011;46330;50.822;7.126;2022-11-20T12:22:41;30.02;;;15.63;;
9140;SDS011;46330;50.822;7.126;2022-11-20T12:25:18;22.58;;;13.23;;
9140;SDS011;46330;50.822;7.126;2022-11-20T12:27:57;25.95;;;14.45;;
9140;SDS011;46330;50.822;7.126;2022-11-20T12:30:47;37.40;;;18.30;;
9140;SDS011;46330;50.822;7.126;2022-11-20T12:33:25;32.25;;;15.88;;
9140;SDS011;46330;50.822;7.126;2022-11-20T12:36:07;25.15;;;14.50;;
9140;SDS011;46330;50.822;7.126;2022-11-20T12:38:49;29.73;;;15.48;;
9140;SDS011;46330;50.822;7.126;2022-11-20T12:41:30;28.27;;;15.75;;
9140;SDS011;46330;50.822;7.126;2022-11-20T12:44:53;24.13;;;12.88;;
9140;SDS011;46330;50.822;7.126;2022-11-20T12:47:49;24.27;;;13.35;;
9140;SDS011;46330;50.822;7.126;2022-11-20T12:50:30;40.55;;;19.70;;
9140;SDS011;46330;50.822;7.126;2022-11-20T12:53:30;24.65;;;12.20;;
9140;SDS011;46330;50.822;7.126;2022-11-20T12:56:07;24.67;;;13.43;;
9140;SDS011;46330;50.822;7.126;2022-11-20T12:58:48;27.83;;;13.77;;
9140;SDS011;46330;50.822;7.126;2022-11-20T13:01:27;23.05;;;12.93;;
9140;SDS011;46330;50.822;7.126;2022-11-20T13:04:16;29.58;;;15.13;;
9140;SDS011;46330;50.822;7.126;2022-11-20T13:07:00;25.45;;;15.07;;
9140;SDS011;46330;50.822;7.126;2022-11-20T13:09:30;25.88;;;13.90;;
9140;SDS011;46330;50.822;7.126;2022-11-20T13:12:01;23.05;;;13.25;;
9140;SDS011;46330;50.822;7.126;2022-11-20T13:14:35;23.60;;;13.43;;
9140;SDS011;46330;50.822;7.126;2022-11-20T13:17:10;24.57;;;14.23;;
9140;SDS011;46330;50.822;7.126;2022-11-20T13:19:46;23.10;;;14.10;;
9140;SDS011;46330;50.822;7.126;2022-11-20T13:22:25;26.25;;;14.63;;
9140;SDS011;46330;50.822;7.126;2022-11-20T13:24:54;24.30;;;12.68;;
9140;SDS011;46330;50.822;7.126;2022-11-20T13:27:22;22.83;;;12.15;;
9140;SDS011;46330;50.822;7.126;2022-11-20T13:30:02;22.80;;;14.10;;
9140;SDS011;46330;50.822;7.126;2022-11-20T13:32:50;25.75;;;15.02;;
9140;SDS011;46330;50.822;7.126;2022-11-20T13:35:27;25.92;;;14.52;;
9140;SDS011;46330;50.822;7.126;2022-11-20T13:38:03;25.17;;;13.65;;
9140;SDS011;46330;50.822;7.126;2022-11-20T13:43:15;25.77;;;13.70;;
9140;SDS011;46330;50.822;7.126;2022-11-20T13:45:58;20.52;;;11.98;;
9140;SDS011;46330;50.822;7.126;2022-11-20T13:48:29;24.10;;;13.13;;
9140;SDS011;46330;50.822;7.126;2022-11-20T13:51:11;24.98;;;14.00;;
9140;SDS011;46330;50.822;7.126;2022-11-20T13:53:55;27.23;;;14.55;;
9140;SDS011;46330;50.822;7.126;2022-11-20T13:56:47;26.30;;;14.25;;
9140;SDS011;46330;50.822;7.126;2022-11-20T13:59:33;24.38;;;13.85;;
9140;SDS011;46330;50.822;7.126;2022-11-20T14:02:09;26.10;;;15.07;;
9140;SDS011;46330;50.822;7.126;2022-11-20T14:04:42;34.85;;;18.77;;
9140;SDS011;46330;50.822;7.126;2022-11-20T14:07:12;23.75;;;14.43;;
9140;SDS011;46330;50.822;7.126;2022-11-20T14:09:48;26.13;;;14.23;;
9140;SDS011;46330;50.822;7.126;2022-11-20T14:12:19;22.75;;;13.30;;
9140;SDS011;46330;50.822;7.126;2022-11-20T14:14:50;25.73;;;14.15;;
9140;SDS011;46330;50.822;7.126;2022-11-20T14:17:21;29.67;;;17.83;;
9140;SDS011;46330;50.822;7.126;2022-11-20T14:19:51;28.33;;;17.13;;
9140;SDS011;46330;50.822;7.126;2022-11-20T14:22:21;22.23;;;13.00;;
9140;SDS011;46330;50.822;7.126;2022-11-20T14:25:02;23.45;;;12.90;;
9140;SDS011;46330;50.822;7.126;2022-11-20T14:27:33;24.30;;;13.98;;
9140;SDS011;46330;50.822;7.126;2022-11-20T14:30:04;22.23;;;13.25;;
9140;SDS011;46330;50.822;7.126;2022-11-20T14:32:32;23.02;;;13.15;;
9140;SDS011;46330;50.822;7.126;2022-11-20T14:35:06;25.00;;;13.48;;
9140;SDS011;46330;50.822;7.126;2022-11-20T14:37:37;22.65;;;12.65;;
9140;SDS011;46330;50.822;7.126;2022-11-20T14:42:53;23.70;;;13.20;;
9140;SDS011;46330;50.822;7.126;2022-11-20T14:45:22;23.25;;;12.73;;
9140;SDS011;46330;50.822;7.126;2022-11-20T14:47:51;23.00;;;12.88;;
9140;SDS011;46330;50.822;7.126;2022-11-20T14:50:20;22.75;;;12.90;;
9140;SDS011;46330;50.822;7.126;2022-11-20T14:52:51;22.48;;;13.88;;
9140;SDS011;46330;50.822;7.126;2022-11-20T14:55:29;21.30;;;12.90;;
9140;SDS011;46330;50.822;7.126;2022-11-20T14:57:58;20.17;;;11.65;;
9140;SDS011;46330;50.822;7.126;2022-11-20T15:00:28;22.98;;;13.07;;
9140;SDS011;46330;50.822;7.126;2022-11-20T15:02:57;18.85;;;11.85;;
9140;SDS011;46330;50.822;7.126;2022-11-20T15:05:25;22.25;;;11.63;;
9140;SDS011;46330;50.822;7.126;2022-11-20T15:08:12;19.02;;;11.73;;
9140;SDS011;46330;50.822;7.126;2022-11-20T15:10:46;19.83;;;12.20;;
9140;SDS011;46330;50.822;7.126;2022-11-20T15:13:16;22.23;;;12.43;;
9140;SDS011;46330;50.822;7.126;2022-11-20T15:15:52;26.67;;;13.85;;